createdAt,value
2019-03-19T00:00:15.829Z,1.16
2019-03-19T00:01:15.766Z,1.14
2019-03-19T00:02:15.754Z,1.06
2019-03-19T00:03:15.787Z,1.04
2019-03-19T00:04:15.720Z,1.16
2019-03-19T00:05:15.690Z,1.06
2019-03-19T00:06:15.689Z,1.12
2019-03-19T00:07:15.687Z,1.09
2019-03-19T00:08:15.676Z,1.13
2019-03-19T00:09:15.662Z,1.10
2019-03-19T00:10:15.666Z,1.13
2019-03-19T00:11:15.636Z,1.13
2019-03-19T00:12:15.623Z,1.20
2019-03-19T00:13:15.651Z,1.18
2019-03-19T00:14:15.618Z,1.12
2019-03-19T00:15:28.723Z,1.14
2019-03-19T00:16:15.570Z,1.16
2019-03-19T00:17:15.562Z,1.22
2019-03-19T00:18:15.546Z,1.21
2019-03-19T00:19:15.555Z,1.14
2019-03-19T00:20:15.534Z,1.24
2019-03-19T00:21:15.516Z,1.18
2019-03-19T00:22:15.520Z,1.12
2019-03-19T00:23:15.497Z,1.18
2019-03-19T00:24:15.496Z,1.21
2019-03-19T00:25:15.510Z,1.13
2019-03-19T00:26:15.465Z,1.18
2019-03-19T00:27:15.450Z,1.14
2019-03-19T00:28:15.440Z,1.18
2019-03-19T00:29:15.429Z,1.18
2019-03-19T00:30:15.417Z,1.12
2019-03-19T00:31:15.459Z,1.09
2019-03-19T00:32:15.396Z,1.21
2019-03-19T00:33:15.394Z,1.16
2019-03-19T00:34:15.372Z,1.09
2019-03-19T00:35:15.376Z,1.18
2019-03-19T00:36:17.341Z,1.13
2019-03-19T00:37:15.346Z,1.07
2019-03-19T00:38:15.330Z,1.09
2019-03-19T00:39:15.327Z,1.10
2019-03-19T00:40:15.365Z,1.10
2019-03-19T00:41:15.297Z,1.07
2019-03-19T00:42:15.331Z,1.00
2019-03-19T00:43:15.274Z,1.00
2019-03-19T00:44:15.265Z,1.02
2019-03-19T00:45:15.265Z,1.07
2019-03-19T00:46:27.296Z,1.10
2019-03-19T00:47:15.265Z,1.03
2019-03-19T00:48:15.231Z,1.00
2019-03-19T00:49:15.233Z,1.04
2019-03-19T00:50:15.206Z,1.09
2019-03-19T00:51:15.203Z,1.03
2019-03-19T00:52:15.229Z,1.04
2019-03-19T00:53:15.170Z,1.13
2019-03-19T00:54:16.166Z,1.13
2019-03-19T00:55:15.154Z,0.99
2019-03-19T00:56:15.147Z,1.03
2019-03-19T00:57:15.129Z,0.96
2019-03-19T00:58:15.127Z,0.96
2019-03-19T00:59:15.108Z,1.04
2019-03-19T01:00:15.098Z,1.06
2019-03-19T01:01:15.159Z,1.03
2019-03-19T01:02:15.086Z,1.02
2019-03-19T01:03:15.076Z,1.04
2019-03-19T01:04:15.060Z,1.12
2019-03-19T01:05:15.063Z,1.07
2019-03-19T01:06:15.030Z,1.07
2019-03-19T01:07:15.015Z,1.09
2019-03-19T01:08:15.208Z,1.09
2019-03-19T01:09:14.995Z,1.09
2019-03-19T01:10:17.234Z,1.06
2019-03-19T01:11:14.978Z,1.03
2019-03-19T01:12:15.620Z,1.03
2019-03-19T01:13:14.974Z,1.03
2019-03-19T01:14:14.989Z,1.02
2019-03-19T01:15:14.934Z,1.00
2019-03-19T01:16:14.917Z,1.10
2019-03-19T01:17:28.022Z,1.18
2019-03-19T01:18:14.914Z,1.04
2019-03-19T01:19:14.965Z,1.02
2019-03-19T01:20:14.927Z,1.07
2019-03-19T01:21:14.864Z,1.12
2019-03-19T01:22:14.868Z,1.13
2019-03-19T01:23:14.925Z,1.13
2019-03-19T01:24:14.832Z,1.14
2019-03-19T01:25:14.839Z,1.16
2019-03-19T01:26:14.959Z,1.12
2019-03-19T01:27:14.800Z,1.12
2019-03-19T01:28:14.803Z,1.04
2019-03-19T01:29:15.640Z,1.06
2019-03-19T01:30:15.149Z,1.13
2019-03-19T01:31:14.754Z,1.09
2019-03-19T01:32:14.761Z,1.10
2019-03-19T01:33:14.744Z,1.06
2019-03-19T01:34:14.740Z,1.20
2019-03-19T01:35:14.721Z,1.10
2019-03-19T01:36:14.716Z,1.03
2019-03-19T01:37:14.742Z,0.99
2019-03-19T01:38:14.686Z,1.04
2019-03-19T01:39:14.675Z,1.03
2019-03-19T01:40:14.664Z,1.09
2019-03-19T01:41:14.696Z,1.02
2019-03-19T01:42:14.639Z,1.10
2019-03-19T01:43:14.626Z,1.10
2019-03-19T01:44:14.620Z,1.03
2019-03-19T01:45:14.606Z,1.10
2019-03-19T01:46:14.638Z,1.10
2019-03-19T01:47:14.587Z,1.07
2019-03-19T01:48:27.997Z,1.07
2019-03-19T01:49:14.566Z,1.14
2019-03-19T01:50:14.570Z,1.13
2019-03-19T01:51:14.542Z,1.04
2019-03-19T01:52:14.578Z,1.12
2019-03-19T01:53:14.525Z,1.04
2019-03-19T01:54:14.512Z,0.99
2019-03-19T01:55:14.519Z,1.00
2019-03-19T01:56:14.483Z,1.07
2019-03-19T01:57:14.482Z,1.07
2019-03-19T01:58:14.503Z,1.07
2019-03-19T01:59:14.456Z,1.07
2019-03-19T02:00:14.448Z,1.12
2019-03-19T02:01:14.434Z,1.14
2019-03-19T02:02:14.501Z,1.13
2019-03-19T02:03:14.428Z,1.07
2019-03-19T02:04:14.432Z,1.09
2019-03-19T02:05:14.401Z,1.16
2019-03-19T02:06:14.372Z,1.10
2019-03-19T02:07:14.373Z,1.10
2019-03-19T02:08:14.371Z,1.13
2019-03-19T02:09:14.463Z,1.24
2019-03-19T02:10:14.416Z,1.12
2019-03-19T02:11:14.326Z,1.16
2019-03-19T02:12:14.322Z,1.18
2019-03-19T02:13:14.333Z,1.12
2019-03-19T02:14:14.296Z,1.20
2019-03-19T02:15:14.294Z,1.16
2019-03-19T02:16:14.282Z,1.18
2019-03-19T02:17:14.267Z,1.18
2019-03-19T02:18:14.256Z,1.14
2019-03-19T02:19:28.215Z,1.13
2019-03-19T02:20:14.293Z,1.12
2019-03-19T02:21:14.208Z,1.13
2019-03-19T02:22:14.217Z,1.10
2019-03-19T02:23:14.191Z,1.18
2019-03-19T02:24:14.185Z,1.12
2019-03-19T02:25:14.187Z,1.12
2019-03-19T02:26:16.828Z,1.10
2019-03-19T02:27:14.142Z,1.18
2019-03-19T02:28:14.151Z,1.18
2019-03-19T02:29:14.134Z,1.14
2019-03-19T02:30:14.148Z,1.12
2019-03-19T02:31:14.119Z,1.10
2019-03-19T02:32:14.145Z,1.14
2019-03-19T02:33:14.108Z,1.12
2019-03-19T02:34:14.075Z,1.12
2019-03-19T02:35:14.085Z,1.10
2019-03-19T02:36:14.066Z,1.07
2019-03-19T02:37:14.037Z,1.18
2019-03-19T02:38:14.078Z,1.14
2019-03-19T02:39:14.021Z,1.10
2019-03-19T02:40:14.025Z,1.12
2019-03-19T02:41:13.996Z,1.12
2019-03-19T02:42:13.980Z,1.07
2019-03-19T02:43:14.029Z,1.10
2019-03-19T02:44:13.977Z,1.14
2019-03-19T02:45:14.028Z,1.07
2019-03-19T02:46:13.966Z,1.09
2019-03-19T02:47:13.939Z,1.20
2019-03-19T02:48:13.934Z,1.20
2019-03-19T02:49:13.938Z,1.13
2019-03-19T02:50:26.900Z,1.10
2019-03-19T02:51:13.892Z,1.14
2019-03-19T02:52:13.872Z,1.16
2019-03-19T02:53:13.870Z,1.24
2019-03-19T02:54:13.873Z,1.12
2019-03-19T02:55:13.888Z,1.21
2019-03-19T02:56:13.839Z,1.24
2019-03-19T02:57:13.821Z,1.22
2019-03-19T02:58:13.840Z,1.25
2019-03-19T02:59:13.797Z,1.21
2019-03-19T03:00:13.792Z,1.24
2019-03-19T03:01:13.792Z,1.14
2019-03-19T03:02:13.766Z,1.28
2019-03-19T03:03:13.828Z,1.18
2019-03-19T03:04:13.759Z,1.24
2019-03-19T03:05:13.766Z,1.21
2019-03-19T03:06:13.716Z,1.25
2019-03-19T03:07:13.710Z,1.27
2019-03-19T03:08:13.711Z,1.22
2019-03-19T03:09:13.684Z,1.25
2019-03-19T03:10:13.678Z,1.28
2019-03-19T03:11:13.714Z,1.25
2019-03-19T03:12:13.664Z,1.39
2019-03-19T03:13:13.645Z,1.40
2019-03-19T03:14:13.637Z,1.31
2019-03-19T03:15:13.620Z,1.32
2019-03-19T03:16:13.626Z,1.38
2019-03-19T03:17:13.635Z,1.32
2019-03-19T03:18:13.624Z,1.34
2019-03-19T03:19:13.577Z,1.34
2019-03-19T03:20:13.590Z,1.42
2019-03-19T03:21:27.248Z,1.45
2019-03-19T03:22:13.558Z,1.43
2019-03-19T03:23:13.527Z,1.38
2019-03-19T03:24:13.537Z,1.45
2019-03-19T03:25:13.518Z,1.36
2019-03-19T03:26:13.499Z,1.40
2019-03-19T03:27:13.487Z,1.45
2019-03-19T03:28:13.503Z,1.46
2019-03-19T03:29:13.463Z,1.46
2019-03-19T03:30:13.476Z,1.36
2019-03-19T03:31:13.440Z,1.46
2019-03-19T03:32:13.431Z,1.49
2019-03-19T03:33:13.436Z,1.50
2019-03-19T03:34:13.432Z,1.49
2019-03-19T03:35:13.413Z,1.49
2019-03-19T03:36:13.385Z,1.45
2019-03-19T03:37:13.375Z,1.46
2019-03-19T03:38:13.366Z,1.48
2019-03-19T03:39:13.391Z,1.42
2019-03-19T03:40:13.347Z,1.42
2019-03-19T03:41:13.333Z,1.43
2019-03-19T03:42:13.317Z,1.42
2019-03-19T03:43:13.307Z,1.43
2019-03-19T03:44:13.305Z,1.45
2019-03-19T03:45:13.326Z,1.39
2019-03-19T03:46:13.289Z,1.42
2019-03-19T03:47:13.263Z,1.45
2019-03-19T03:48:13.256Z,1.42
2019-03-19T03:49:13.252Z,1.43
2019-03-19T03:50:13.233Z,1.45
2019-03-19T03:51:13.253Z,1.45
2019-03-19T03:52:26.686Z,1.46
2019-03-19T03:53:13.201Z,1.42
2019-03-19T03:54:13.185Z,1.46
2019-03-19T03:55:13.195Z,1.43
2019-03-19T03:56:13.170Z,1.38
2019-03-19T03:57:13.259Z,1.43
2019-03-19T03:58:13.150Z,1.49
2019-03-19T03:59:13.137Z,1.34
2019-03-19T04:00:13.129Z,1.49
2019-03-19T04:01:13.121Z,1.42
2019-03-19T04:02:13.137Z,1.45
2019-03-19T04:03:13.091Z,1.43
2019-03-19T04:04:13.084Z,1.49
2019-03-19T04:05:13.073Z,1.40
2019-03-19T04:06:13.070Z,1.42
2019-03-19T04:07:13.047Z,1.48
2019-03-19T04:08:13.324Z,1.45
2019-03-19T04:09:13.034Z,1.46
2019-03-19T04:10:13.079Z,1.40
2019-03-19T04:11:13.003Z,1.46
2019-03-19T04:12:12.995Z,1.45
2019-03-19T04:13:12.971Z,1.43
2019-03-19T04:14:12.981Z,1.49
2019-03-19T04:15:13.030Z,1.42
2019-03-19T04:16:12.949Z,1.40
2019-03-19T04:17:12.929Z,1.43
2019-03-19T04:18:12.955Z,1.45
2019-03-19T04:19:12.954Z,1.43
2019-03-19T04:20:12.922Z,1.45
2019-03-19T04:21:12.893Z,1.43
2019-03-19T04:22:15.814Z,1.50
2019-03-19T04:23:24.757Z,1.46
2019-03-19T04:24:12.867Z,1.43
2019-03-19T04:25:12.882Z,1.49
2019-03-19T04:26:12.851Z,1.42
2019-03-19T04:27:16.260Z,1.45
2019-03-19T04:28:12.828Z,1.42
2019-03-19T04:29:12.805Z,1.45
2019-03-19T04:30:13.874Z,1.42
2019-03-19T04:31:12.790Z,1.43
2019-03-19T04:32:12.775Z,1.40
2019-03-19T04:33:12.758Z,1.36
2019-03-19T04:34:12.767Z,1.34
2019-03-19T04:35:12.745Z,1.36
2019-03-19T04:36:12.749Z,1.38
2019-03-19T04:37:12.719Z,1.36
2019-03-19T04:38:12.712Z,1.28
2019-03-19T04:39:12.687Z,1.30
2019-03-19T04:40:12.678Z,1.34
2019-03-19T04:41:12.848Z,1.30
2019-03-19T04:42:12.657Z,1.30
2019-03-19T04:43:12.642Z,1.38
2019-03-19T04:44:12.632Z,1.34
2019-03-19T04:45:12.636Z,1.39
2019-03-19T04:46:12.619Z,1.32
2019-03-19T04:47:12.616Z,1.40
2019-03-19T04:48:12.607Z,1.40
2019-03-19T04:49:12.606Z,1.32
2019-03-19T04:50:12.566Z,1.40
2019-03-19T04:51:12.564Z,1.36
2019-03-19T04:52:12.660Z,1.36
2019-03-19T04:53:12.547Z,1.40
2019-03-19T04:54:25.551Z,1.38
2019-03-19T04:55:12.507Z,1.31
2019-03-19T04:56:12.516Z,1.39
2019-03-19T04:57:12.491Z,1.34
2019-03-19T04:58:12.516Z,1.40
2019-03-19T04:59:12.467Z,1.36
2019-03-19T05:00:12.512Z,1.36
2019-03-19T05:01:12.449Z,1.40
2019-03-19T05:02:12.437Z,1.34
2019-03-19T05:03:12.442Z,1.27
2019-03-19T05:04:12.441Z,1.30
2019-03-19T05:05:12.403Z,1.38
2019-03-19T05:06:12.395Z,1.31
2019-03-19T05:07:12.489Z,1.34
2019-03-19T05:08:12.364Z,1.38
2019-03-19T05:09:12.358Z,1.43
2019-03-19T05:10:12.355Z,1.45
2019-03-19T05:11:12.335Z,1.43
2019-03-19T05:12:12.328Z,1.36
2019-03-19T05:13:12.319Z,1.40
2019-03-19T05:14:12.348Z,1.38
2019-03-19T05:15:12.294Z,1.36
2019-03-19T05:16:12.292Z,1.38
2019-03-19T05:17:12.261Z,1.40
2019-03-19T05:18:12.281Z,1.40
2019-03-19T05:19:12.254Z,1.36
2019-03-19T05:20:12.281Z,1.39
2019-03-19T05:21:12.241Z,1.40
2019-03-19T05:22:12.213Z,1.42
2019-03-19T05:23:12.197Z,1.43
2019-03-19T05:24:12.193Z,1.43
2019-03-19T05:25:22.366Z,1.46
2019-03-19T05:26:12.193Z,1.45
2019-03-19T05:27:13.960Z,1.48
2019-03-19T05:28:12.141Z,1.42
2019-03-19T05:29:12.140Z,1.52
2019-03-19T05:30:12.128Z,1.57
2019-03-19T05:31:12.140Z,1.56
2019-03-19T05:32:12.121Z,1.49
2019-03-19T05:33:12.105Z,1.48
2019-03-19T05:34:12.080Z,1.46
2019-03-19T05:35:12.070Z,1.71
2019-03-19T05:36:12.100Z,1.63
2019-03-19T05:37:12.057Z,1.66
2019-03-19T05:38:12.053Z,1.50
2019-03-19T05:39:12.053Z,1.63
2019-03-19T05:40:12.072Z,1.63
2019-03-19T05:41:12.000Z,1.61
2019-03-19T05:42:12.037Z,1.63
2019-03-19T05:43:11.980Z,1.60
2019-03-19T05:44:11.993Z,1.64
2019-03-19T05:45:11.989Z,1.66
2019-03-19T05:46:11.949Z,1.57
2019-03-19T05:47:11.939Z,1.64
2019-03-19T05:48:11.965Z,1.66
2019-03-19T05:49:11.975Z,1.71
2019-03-19T05:50:11.917Z,1.64
2019-03-19T05:51:11.894Z,1.70
2019-03-19T05:52:11.901Z,1.68
2019-03-19T05:53:12.210Z,1.67
2019-03-19T05:54:11.896Z,1.81
2019-03-19T05:55:11.849Z,1.79
2019-03-19T05:56:24.783Z,1.74
2019-03-19T05:57:11.860Z,1.86
2019-03-19T05:58:11.825Z,1.78
2019-03-19T05:59:11.855Z,1.86
2019-03-19T06:00:11.806Z,1.86
2019-03-19T06:01:11.889Z,1.84
2019-03-19T06:02:12.759Z,1.86
2019-03-19T06:03:12.764Z,1.93
2019-03-19T06:04:11.752Z,1.93
2019-03-19T06:05:11.772Z,1.92
2019-03-19T06:06:11.721Z,1.86
2019-03-19T06:07:11.746Z,1.95
2019-03-19T06:08:11.725Z,2.01
2019-03-19T06:09:11.698Z,1.97
2019-03-19T06:10:11.685Z,1.85
2019-03-19T06:11:11.695Z,1.93
2019-03-19T06:12:11.659Z,2.00
2019-03-19T06:13:11.662Z,2.04
2019-03-19T06:14:11.642Z,1.89
2019-03-19T06:15:11.627Z,1.97
2019-03-19T06:16:11.619Z,1.97
2019-03-19T06:17:11.613Z,1.93
2019-03-19T06:18:11.591Z,2.00
2019-03-19T06:19:11.590Z,1.95
2019-03-19T06:20:11.585Z,1.95
2019-03-19T06:21:11.573Z,2.03
2019-03-19T06:22:11.576Z,1.98
2019-03-19T06:23:11.631Z,2.04
2019-03-19T06:24:11.530Z,2.05
2019-03-19T06:25:11.614Z,2.03
2019-03-19T06:26:11.506Z,1.93
2019-03-19T06:27:22.957Z,2.04
2019-03-19T06:28:11.586Z,2.07
2019-03-19T06:29:11.472Z,2.04
2019-03-19T06:30:11.463Z,1.98
2019-03-19T06:31:11.459Z,2.10
2019-03-19T06:32:11.457Z,2.01
2019-03-19T06:33:11.456Z,2.10
2019-03-19T06:34:11.424Z,2.03
2019-03-19T06:35:11.417Z,2.07
2019-03-19T06:36:11.419Z,2.01
2019-03-19T06:37:11.405Z,2.05
2019-03-19T06:38:11.374Z,2.10
2019-03-19T06:39:11.386Z,2.23
2019-03-19T06:40:11.353Z,2.19
2019-03-19T06:41:11.407Z,2.23
2019-03-19T06:42:11.342Z,2.22
2019-03-19T06:43:11.354Z,2.22
2019-03-19T06:44:11.313Z,2.21
2019-03-19T06:45:11.314Z,2.25
2019-03-19T06:46:11.299Z,2.22
2019-03-19T06:47:11.277Z,2.28
2019-03-19T06:48:11.354Z,2.36
2019-03-19T06:49:11.253Z,2.41
2019-03-19T06:50:11.307Z,2.44
2019-03-19T06:51:11.252Z,2.34
2019-03-19T06:52:11.223Z,2.34
2019-03-19T06:53:11.236Z,2.34
2019-03-19T06:54:11.199Z,2.36
2019-03-19T06:55:11.215Z,2.37
2019-03-19T06:56:15.924Z,2.54
2019-03-19T06:57:11.217Z,2.62
2019-03-19T06:58:23.247Z,2.72
2019-03-19T06:59:11.151Z,2.70
2019-03-19T07:00:11.138Z,2.75
2019-03-19T07:01:11.125Z,2.70
2019-03-19T07:02:11.127Z,2.76
2019-03-19T07:04:26.858Z,2.73
2019-03-19T07:05:26.824Z,2.79
2019-03-19T07:06:26.976Z,2.75
2019-03-19T07:07:26.806Z,2.69
2019-03-19T07:08:26.815Z,2.75
2019-03-19T07:09:26.782Z,2.65
2019-03-19T07:10:26.779Z,2.65
2019-03-19T07:11:26.763Z,2.62
2019-03-19T07:12:26.766Z,2.62
2019-03-19T07:13:26.734Z,2.65
2019-03-19T07:14:26.731Z,2.50
2019-03-19T07:15:26.717Z,2.51
2019-03-19T07:16:26.756Z,2.54
2019-03-19T07:17:26.730Z,2.52
2019-03-19T07:18:26.684Z,2.65
2019-03-19T07:19:26.670Z,2.65
2019-03-19T07:20:34.367Z,2.69
2019-03-19T07:21:26.692Z,2.62
2019-03-19T07:22:26.651Z,2.72
2019-03-19T07:23:26.665Z,2.75
2019-03-19T07:24:34.410Z,2.61
2019-03-19T07:25:35.626Z,2.68
2019-03-19T07:26:26.636Z,2.65
2019-03-19T07:27:26.595Z,2.64
2019-03-19T07:28:26.662Z,2.64
2019-03-19T07:29:26.641Z,2.55
2019-03-19T07:30:26.695Z,2.64
2019-03-19T07:31:30.866Z,2.70
2019-03-19T07:32:35.032Z,2.62
2019-03-19T07:33:26.516Z,2.68
2019-03-19T07:34:26.505Z,2.80
2019-03-19T07:35:26.503Z,2.69
2019-03-19T07:36:26.481Z,2.61
2019-03-19T07:37:26.477Z,2.61
2019-03-19T07:38:26.460Z,2.62
2019-03-19T07:39:26.457Z,2.64
2019-03-19T07:40:26.458Z,2.65
2019-03-19T07:41:26.427Z,2.65
2019-03-19T07:42:26.419Z,2.57
2019-03-19T07:43:26.407Z,2.65
2019-03-19T07:44:26.404Z,2.55
2019-03-19T07:45:26.403Z,2.52
2019-03-19T07:46:26.382Z,2.62
2019-03-19T07:47:26.356Z,2.62
2019-03-19T07:48:26.356Z,2.62
2019-03-19T07:49:26.337Z,2.75
2019-03-19T07:50:26.368Z,2.73
2019-03-19T07:51:26.325Z,2.75
2019-03-19T07:52:34.658Z,2.73
2019-03-19T07:53:26.347Z,2.70
2019-03-19T07:54:26.371Z,2.77
2019-03-19T07:55:26.341Z,2.79
2019-03-19T07:57:42.547Z,2.80
2019-03-19T07:58:45.440Z,2.79
2019-03-19T07:59:42.534Z,2.73
2019-03-19T08:00:42.517Z,2.80
2019-03-19T08:01:42.503Z,2.85
2019-03-19T08:02:42.445Z,2.87
2019-03-19T08:03:42.516Z,2.97
2019-03-19T08:04:42.432Z,3.00
2019-03-19T08:05:42.410Z,3.03
2019-03-19T08:06:42.392Z,3.05
2019-03-19T08:07:42.392Z,3.01
2019-03-19T08:08:42.374Z,3.06
2019-03-19T08:09:42.509Z,3.09
2019-03-19T08:10:42.361Z,3.06
2019-03-19T08:11:42.339Z,3.09
2019-03-19T08:12:42.341Z,3.12
2019-03-19T08:13:50.168Z,3.16
2019-03-19T08:14:42.305Z,3.13
2019-03-19T08:15:42.311Z,3.11
2019-03-19T08:16:42.288Z,3.18
2019-03-19T08:17:43.158Z,3.11
2019-03-19T08:18:42.260Z,3.19
2019-03-19T08:19:43.849Z,3.29
2019-03-19T08:20:42.263Z,3.30
2019-03-19T08:21:42.239Z,3.37
2019-03-19T08:22:42.219Z,3.41
2019-03-19T08:23:42.204Z,3.41
2019-03-19T08:24:42.201Z,3.43
2019-03-19T08:25:42.190Z,3.49
2019-03-19T08:26:42.180Z,3.56
2019-03-19T08:27:42.167Z,3.52
2019-03-19T08:28:42.145Z,3.48
2019-03-19T08:29:42.165Z,3.46
2019-03-19T08:30:42.298Z,3.58
2019-03-19T08:31:42.163Z,3.59
2019-03-19T08:32:44.281Z,3.59
2019-03-19T08:33:42.091Z,3.61
2019-03-19T08:34:42.094Z,3.70
2019-03-19T08:35:42.417Z,3.63
2019-03-19T08:36:42.237Z,3.68
2019-03-19T08:37:42.173Z,3.78
2019-03-19T08:38:42.038Z,3.84
2019-03-19T08:39:42.258Z,3.92
2019-03-19T08:40:42.198Z,3.85
2019-03-19T08:41:42.215Z,3.76
2019-03-19T08:42:41.999Z,3.76
2019-03-19T08:43:43.177Z,3.73
2019-03-19T08:44:55.088Z,3.68
2019-03-19T08:45:41.962Z,3.74
2019-03-19T08:46:41.944Z,3.74
2019-03-19T08:47:42.037Z,3.77
2019-03-19T08:48:41.938Z,3.82
2019-03-19T08:49:41.937Z,3.91
2019-03-19T08:50:41.912Z,3.99
2019-03-19T08:51:41.904Z,3.96
2019-03-19T08:52:41.905Z,4.02
2019-03-19T08:53:41.928Z,3.96
2019-03-19T08:54:41.875Z,4.02
2019-03-19T08:55:41.912Z,4.02
2019-03-19T08:56:48.832Z,4.03
2019-03-19T08:57:41.827Z,4.03
2019-03-19T08:58:41.914Z,3.92
2019-03-19T08:59:41.848Z,3.94
2019-03-19T09:00:41.815Z,3.86
2019-03-19T09:01:41.786Z,3.74
2019-03-19T09:02:41.839Z,3.76
2019-03-19T09:03:41.777Z,3.85
2019-03-19T09:04:41.755Z,3.73
2019-03-19T09:05:41.859Z,3.66
2019-03-19T09:06:41.793Z,3.68
2019-03-19T09:07:41.769Z,3.48
2019-03-19T09:08:41.768Z,3.34
2019-03-19T09:09:41.700Z,3.46
2019-03-19T09:10:41.742Z,3.41
2019-03-19T09:11:41.704Z,3.58
2019-03-19T09:12:41.668Z,3.53
2019-03-19T09:13:41.657Z,3.61
2019-03-19T09:14:41.640Z,3.59
2019-03-19T09:15:53.729Z,3.55
2019-03-19T09:16:41.760Z,3.58
2019-03-19T09:17:41.628Z,3.52
2019-03-19T09:18:41.603Z,3.55
2019-03-19T09:19:42.244Z,3.61
2019-03-19T09:20:41.579Z,3.55
2019-03-19T09:21:41.602Z,3.61
2019-03-19T09:22:41.573Z,3.64
2019-03-19T09:23:41.556Z,3.58
2019-03-19T09:24:41.533Z,3.70
2019-03-19T09:25:41.520Z,3.59
2019-03-19T09:26:41.601Z,3.70
2019-03-19T09:27:41.539Z,3.63
2019-03-19T09:28:41.515Z,3.61
2019-03-19T09:29:41.476Z,3.71
2019-03-19T09:30:41.481Z,3.66
2019-03-19T09:31:41.452Z,3.61
2019-03-19T09:32:41.452Z,3.71
2019-03-19T09:33:41.489Z,3.77
2019-03-19T09:34:41.442Z,3.73
2019-03-19T09:35:48.406Z,3.74
2019-03-19T09:36:41.404Z,3.73
2019-03-19T09:37:46.360Z,3.88
2019-03-19T09:38:42.394Z,3.84
2019-03-19T09:39:41.414Z,3.86
2019-03-19T09:40:41.380Z,3.92
2019-03-19T09:41:41.342Z,3.89
2019-03-19T09:42:41.410Z,3.82
2019-03-19T09:43:41.334Z,3.96
2019-03-19T09:44:41.356Z,3.88
2019-03-19T09:45:41.312Z,3.71
2019-03-19T09:46:42.326Z,3.74
2019-03-19T09:47:41.279Z,3.77
2019-03-19T09:48:41.271Z,3.85
2019-03-19T09:49:41.257Z,3.94
2019-03-19T09:50:41.285Z,4.06
2019-03-19T09:51:41.235Z,4.14
2019-03-19T09:52:41.232Z,4.14
2019-03-19T09:53:41.323Z,4.02
2019-03-19T09:54:41.206Z,4.00
2019-03-19T09:55:41.194Z,3.85
2019-03-19T09:56:41.195Z,3.78
2019-03-19T09:57:41.186Z,4.00
2019-03-19T09:58:41.180Z,4.02
2019-03-19T09:59:43.609Z,4.12
2019-03-19T10:00:41.140Z,4.22
2019-03-19T10:01:41.173Z,4.25
2019-03-19T10:02:41.111Z,4.34
2019-03-19T10:03:41.166Z,4.46
2019-03-19T10:04:41.791Z,4.48
2019-03-19T10:05:41.101Z,4.48
2019-03-19T10:08:01.161Z,4.57
2019-03-19T10:09:01.164Z,4.45
2019-03-19T10:10:01.103Z,4.25
2019-03-19T10:11:01.086Z,4.00
2019-03-19T10:12:01.728Z,3.86
2019-03-19T10:13:01.165Z,3.77
2019-03-19T10:14:01.066Z,3.74
2019-03-19T10:15:01.043Z,3.86
2019-03-19T10:16:01.227Z,3.85
2019-03-19T10:17:01.015Z,3.95
2019-03-19T10:18:01.009Z,4.07
2019-03-19T10:19:01.069Z,4.16
2019-03-19T10:20:00.988Z,4.12
2019-03-19T10:21:00.983Z,4.06
2019-03-19T10:22:00.969Z,4.07
2019-03-19T10:23:00.989Z,4.16
2019-03-19T10:24:01.044Z,4.13
2019-03-19T10:25:00.955Z,4.14
2019-03-19T10:26:00.918Z,4.30
2019-03-19T10:27:00.907Z,4.22
2019-03-19T10:28:00.897Z,4.34
2019-03-19T10:29:00.885Z,4.13
2019-03-19T10:30:00.889Z,4.07
2019-03-19T10:31:00.864Z,4.09
2019-03-19T10:32:00.855Z,3.94
2019-03-19T10:33:00.837Z,3.94
2019-03-19T10:34:00.834Z,3.96
2019-03-19T10:35:00.832Z,4.03
2019-03-19T10:36:00.817Z,4.06
2019-03-19T10:37:00.798Z,4.06
2019-03-19T10:38:07.792Z,4.13
2019-03-19T10:39:00.774Z,4.12
2019-03-19T10:40:00.777Z,3.96
2019-03-19T10:41:00.780Z,3.82
2019-03-19T10:42:00.756Z,3.67
2019-03-19T10:43:00.739Z,3.77
2019-03-19T10:44:00.736Z,3.73
2019-03-19T10:45:00.827Z,3.71
2019-03-19T10:46:00.792Z,3.59
2019-03-19T10:47:01.071Z,3.61
2019-03-19T10:48:00.680Z,3.58
2019-03-19T10:49:00.668Z,3.61
2019-03-19T10:50:00.659Z,3.67
2019-03-19T10:51:00.648Z,3.73
2019-03-19T10:52:00.640Z,3.74
2019-03-19T10:53:00.681Z,3.76
2019-03-19T10:54:00.615Z,3.91
2019-03-19T10:55:00.602Z,3.88
2019-03-19T10:56:00.593Z,3.95
2019-03-19T10:57:00.588Z,3.74
2019-03-19T10:58:10.625Z,3.63
2019-03-19T10:59:01.557Z,3.64
2019-03-19T11:00:00.546Z,3.77
2019-03-19T11:01:00.542Z,3.74
2019-03-19T11:02:00.527Z,3.85
2019-03-19T11:03:00.532Z,3.94
2019-03-19T11:04:00.528Z,4.09
2019-03-19T11:05:00.496Z,4.09
2019-03-19T11:06:00.483Z,4.09
2019-03-19T11:07:01.301Z,4.21
2019-03-19T11:08:00.474Z,4.24
2019-03-19T11:09:13.082Z,4.24
2019-03-19T11:10:00.461Z,4.31
2019-03-19T11:11:00.451Z,4.24
2019-03-19T11:12:00.426Z,4.40
2019-03-19T11:13:00.407Z,4.45
2019-03-19T11:14:00.419Z,4.43
2019-03-19T11:15:00.438Z,4.61
2019-03-19T11:16:00.377Z,4.50
2019-03-19T11:17:00.381Z,4.53
2019-03-19T11:18:00.356Z,4.53
2019-03-19T11:19:00.346Z,4.53
2019-03-19T11:20:00.398Z,4.58
2019-03-19T11:21:00.332Z,4.43
2019-03-19T11:22:00.321Z,4.56
2019-03-19T11:23:00.299Z,4.40
2019-03-19T11:24:00.283Z,4.45
2019-03-19T11:25:00.355Z,4.43
2019-03-19T11:26:00.305Z,4.49
2019-03-19T11:27:00.317Z,4.43
2019-03-19T11:28:00.257Z,4.34
2019-03-19T11:29:00.230Z,4.20
2019-03-19T11:30:00.501Z,4.14
2019-03-19T11:31:00.210Z,4.12
2019-03-19T11:32:00.206Z,4.22
2019-03-19T11:33:00.621Z,4.21
2019-03-19T11:34:00.185Z,4.14
2019-03-19T11:35:00.419Z,4.13
2019-03-19T11:36:00.181Z,4.09
2019-03-19T11:37:00.155Z,4.03
2019-03-19T11:38:00.144Z,4.02
2019-03-19T11:39:00.157Z,4.07
2019-03-19T11:40:12.762Z,4.03
2019-03-19T11:41:00.127Z,4.06
2019-03-19T11:42:00.101Z,3.95
2019-03-19T11:43:00.088Z,3.94
2019-03-19T11:44:00.082Z,3.99
2019-03-19T11:45:00.085Z,4.02
2019-03-19T11:46:00.054Z,4.12
2019-03-19T11:47:00.312Z,4.04
2019-03-19T11:48:00.080Z,4.07
2019-03-19T11:49:00.028Z,3.89
2019-03-19T11:50:00.047Z,3.86
2019-03-19T11:50:59.989Z,3.82
2019-03-19T11:51:59.989Z,3.89
2019-03-19T11:52:59.973Z,4.00
2019-03-19T11:54:00.017Z,4.00
2019-03-19T11:55:00.572Z,3.99
2019-03-19T11:55:59.990Z,4.02
2019-03-19T11:56:59.927Z,4.07
2019-03-19T11:57:59.923Z,4.14
2019-03-19T11:58:59.916Z,4.16
2019-03-19T12:00:10.802Z,4.25
2019-03-19T12:01:00.920Z,4.16
2019-03-19T12:01:59.918Z,4.20
2019-03-19T12:03:10.932Z,4.16
2019-03-19T12:04:00.870Z,4.28
2019-03-19T12:04:59.842Z,4.40
2019-03-19T12:05:59.829Z,4.27
2019-03-19T12:06:59.832Z,4.40
2019-03-19T12:07:59.812Z,4.31
2019-03-19T12:08:59.797Z,4.25
2019-03-19T12:09:59.782Z,4.25
2019-03-19T12:11:12.489Z,4.18
2019-03-19T12:11:59.806Z,4.24
2019-03-19T12:12:59.786Z,4.30
2019-03-19T12:13:59.771Z,4.34
2019-03-19T12:14:59.745Z,4.27
2019-03-19T12:15:59.819Z,4.30
2019-03-19T12:16:59.853Z,4.27
2019-03-19T12:18:00.138Z,4.32
2019-03-19T12:18:59.713Z,4.28
2019-03-19T12:19:59.680Z,4.42
2019-03-19T12:20:59.677Z,4.25
2019-03-19T12:21:59.660Z,4.40
2019-03-19T12:22:59.649Z,4.40
2019-03-19T12:23:59.646Z,4.34
2019-03-19T12:24:59.624Z,4.20
2019-03-19T12:25:59.667Z,4.28
2019-03-19T12:26:59.609Z,4.24
2019-03-19T12:27:59.588Z,4.21
2019-03-19T12:28:59.620Z,4.24
2019-03-19T12:29:59.572Z,4.27
2019-03-19T12:30:59.577Z,4.30
2019-03-19T12:31:59.551Z,4.25
2019-03-19T12:32:59.542Z,4.20
2019-03-19T12:33:59.537Z,4.16
2019-03-19T12:35:01.526Z,4.20
2019-03-19T12:35:59.504Z,4.28
2019-03-19T12:36:59.510Z,4.28
2019-03-19T12:37:59.484Z,4.43
2019-03-19T12:38:59.599Z,4.43
2019-03-19T12:39:59.496Z,4.49
2019-03-19T12:40:59.456Z,4.40
2019-03-19T12:42:12.657Z,4.58
2019-03-19T12:42:59.423Z,4.49
2019-03-19T12:43:59.422Z,4.46
2019-03-19T12:44:59.468Z,4.45
2019-03-19T12:45:59.423Z,4.48
2019-03-19T12:46:59.387Z,4.27
2019-03-19T12:47:59.374Z,4.30
2019-03-19T12:48:59.370Z,4.40
2019-03-19T12:49:59.366Z,4.46
2019-03-19T12:50:59.502Z,4.36
2019-03-19T12:52:00.149Z,4.27
2019-03-19T12:52:59.522Z,4.24
2019-03-19T12:53:59.327Z,4.25
2019-03-19T12:54:59.308Z,4.25
2019-03-19T12:55:59.323Z,4.13
2019-03-19T12:56:59.286Z,4.21
2019-03-19T12:58:01.332Z,4.30
2019-03-19T12:58:59.354Z,4.21
2019-03-19T12:59:59.246Z,4.16
2019-03-19T13:00:59.259Z,4.10
2019-03-19T13:01:59.263Z,4.13
2019-03-19T13:02:59.216Z,4.10
2019-03-19T13:03:59.259Z,4.02
2019-03-19T13:04:59.199Z,3.94
2019-03-19T13:05:59.177Z,3.99
2019-03-19T13:06:59.170Z,4.00
2019-03-19T13:07:59.188Z,4.03
2019-03-19T13:08:59.144Z,4.13
2019-03-19T13:10:00.333Z,4.12
2019-03-19T13:10:59.130Z,4.14
2019-03-19T13:11:59.109Z,4.16
2019-03-19T13:13:12.214Z,4.12
2019-03-19T13:13:59.105Z,4.18
2019-03-19T13:14:59.105Z,4.00
2019-03-19T13:15:59.078Z,4.02
2019-03-19T13:16:59.066Z,3.99
2019-03-19T13:17:59.067Z,3.95
2019-03-19T13:18:59.066Z,4.10
2019-03-19T13:19:59.035Z,4.06
2019-03-19T13:20:59.038Z,4.13
2019-03-19T13:21:59.012Z,4.16